createdAt,value
2022-09-26T00:00:13.718Z,10.94
2022-09-26T00:02:40.145Z,10.95
2022-09-26T00:05:07.644Z,11.00
2022-09-26T00:07:34.145Z,11.01
2022-09-26T00:10:00.612Z,11.00
2022-09-26T00:12:27.033Z,10.99
2022-09-26T00:14:53.448Z,11.01
2022-09-26T00:17:19.885Z,11.01
2022-09-26T00:19:46.276Z,11.04
2022-09-26T00:22:12.707Z,11.06
2022-09-26T00:24:39.152Z,11.07
2022-09-26T00:27:05.564Z,11.11
2022-09-26T00:29:31.942Z,11.12
2022-09-26T00:31:58.368Z,11.13
2022-09-26T00:34:24.796Z,11.11
2022-09-26T00:36:52.748Z,11.13
2022-09-26T00:39:19.134Z,11.12
2022-09-26T00:41:45.733Z,11.12
2022-09-26T00:44:40.301Z,11.10
2022-09-26T00:47:31.287Z,11.09
2022-09-26T00:50:07.991Z,11.10
2022-09-26T00:52:45.074Z,11.09
2022-09-26T00:55:14.715Z,11.07
2022-09-26T00:57:49.833Z,11.07
2022-09-26T01:00:16.393Z,11.08
2022-09-26T01:02:45.195Z,11.08
2022-09-26T01:05:15.251Z,11.09
2022-09-26T01:07:41.725Z,11.08
2022-09-26T01:10:09.095Z,11.09
2022-09-26T01:12:37.439Z,11.08
2022-09-26T01:15:07.393Z,11.07
2022-09-26T01:17:33.976Z,11.06
2022-09-26T01:20:03.725Z,11.06
2022-09-26T01:22:33.223Z,11.07
2022-09-26T01:25:10.098Z,11.07
2022-09-26T01:27:48.608Z,11.08
2022-09-26T01:30:26.361Z,11.06
2022-09-26T01:33:18.822Z,11.05
2022-09-26T01:36:08.953Z,11.05
2022-09-26T01:38:38.215Z,11.04
2022-09-26T01:41:04.609Z,11.03
2022-09-26T01:43:45.807Z,11.03
2022-09-26T01:46:25.122Z,11.01
2022-09-26T01:48:58.799Z,11.01
2022-09-26T01:51:44.469Z,11.02
2022-09-26T01:54:18.041Z,11.01
2022-09-26T01:56:48.220Z,11.00
2022-09-26T01:59:34.893Z,11.01
2022-09-26T02:02:19.323Z,11.01
2022-09-26T02:04:52.450Z,11.01
2022-09-26T02:07:21.616Z,11.01
2022-09-26T02:09:53.824Z,11.01
2022-09-26T02:12:27.546Z,11.02
2022-09-26T02:14:58.244Z,11.01
2022-09-26T02:17:35.598Z,11.01
2022-09-26T02:20:15.198Z,11.01
2022-09-26T02:22:41.888Z,11.00
2022-09-26T02:25:09.109Z,10.99
2022-09-26T02:27:35.649Z,10.97
2022-09-26T02:30:02.082Z,10.95
2022-09-26T02:32:31.733Z,10.94
2022-09-26T02:34:59.786Z,10.93
2022-09-26T02:37:28.821Z,10.92
2022-09-26T02:39:56.148Z,10.92
2022-09-26T02:42:47.643Z,10.89
2022-09-26T02:45:35.401Z,10.88
2022-09-26T02:48:26.337Z,10.85
2022-09-26T02:50:56.929Z,10.84
2022-09-26T02:53:55.796Z,10.83
2022-09-26T02:56:28.246Z,10.81
2022-09-26T02:59:03.810Z,10.80
2022-09-26T03:01:42.752Z,10.78
2022-09-26T03:04:20.833Z,10.77
2022-09-26T03:06:51.361Z,10.75
2022-09-26T03:09:20.602Z,10.73
2022-09-26T03:11:48.162Z,10.72
2022-09-26T03:14:16.869Z,10.72
2022-09-26T03:16:45.235Z,10.70
2022-09-26T03:19:22.435Z,10.69
2022-09-26T03:21:48.972Z,10.68
2022-09-26T03:24:15.462Z,10.67
2022-09-26T03:26:42.667Z,10.67
2022-09-26T03:29:09.173Z,10.66
2022-09-26T03:31:35.754Z,10.67
2022-09-26T03:34:02.330Z,10.65
2022-09-26T03:36:29.114Z,10.65
2022-09-26T03:38:55.598Z,10.66
2022-09-26T03:41:23.016Z,10.64
2022-09-26T03:43:49.580Z,10.64
2022-09-26T03:46:16.189Z,10.63
2022-09-26T03:48:43.202Z,10.63
2022-09-26T03:51:13.266Z,10.63
2022-09-26T03:53:42.379Z,10.63
2022-09-26T03:56:11.532Z,10.63
2022-09-26T03:58:38.580Z,10.64
2022-09-26T04:01:18.146Z,10.62
2022-09-26T04:03:50.255Z,10.61
2022-09-26T04:06:20.207Z,10.61
2022-09-26T04:08:49.306Z,10.61
2022-09-26T04:11:19.211Z,10.62
2022-09-26T04:13:51.826Z,10.61
2022-09-26T04:16:20.650Z,10.61
2022-09-26T04:18:47.951Z,10.61
2022-09-26T04:21:14.693Z,10.59
2022-09-26T04:23:42.976Z,10.59
2022-09-26T04:26:20.168Z,10.58
2022-09-26T04:28:50.884Z,10.58
2022-09-26T04:31:17.785Z,10.58
2022-09-26T04:33:45.137Z,10.59
2022-09-26T04:36:13.626Z,10.59
2022-09-26T04:38:41.128Z,10.60
2022-09-26T04:41:10.401Z,10.57
2022-09-26T04:43:37.574Z,10.58
2022-09-26T04:46:09.380Z,10.58
2022-09-26T04:48:36.255Z,10.58
2022-09-26T04:51:12.660Z,10.58
2022-09-26T04:53:40.308Z,10.57
2022-09-26T04:56:09.433Z,10.59
2022-09-26T04:58:37.875Z,10.58
2022-09-26T05:01:13.514Z,10.58
2022-09-26T05:03:41.932Z,10.57
2022-09-26T05:06:10.112Z,10.54
2022-09-26T05:08:38.323Z,10.53
2022-09-26T05:11:05.097Z,10.54
2022-09-26T05:13:31.545Z,10.52
2022-09-26T05:16:02.925Z,10.50
2022-09-26T05:18:29.843Z,10.48
2022-09-26T05:20:57.655Z,10.48
2022-09-26T05:23:45.423Z,10.46
2022-09-26T05:26:37.302Z,10.45
2022-09-26T05:29:08.374Z,10.44
2022-09-26T05:31:39.467Z,10.44
2022-09-26T05:34:19.490Z,10.43
2022-09-26T05:36:46.769Z,10.43
2022-09-26T05:39:31.779Z,10.44
2022-09-26T05:41:59.314Z,10.41
2022-09-26T05:44:27.328Z,10.42
2022-09-26T05:46:53.999Z,10.43
2022-09-26T05:49:20.502Z,10.43
2022-09-26T05:51:46.894Z,10.43
2022-09-26T05:54:13.801Z,10.43
2022-09-26T05:56:40.559Z,10.44
2022-09-26T05:59:07.178Z,10.45
2022-09-26T06:01:34.201Z,10.42
2022-09-26T06:04:02.783Z,10.43
2022-09-26T06:06:30.015Z,10.43
2022-09-26T06:08:56.817Z,10.38
2022-09-26T06:11:28.018Z,10.40
2022-09-26T06:13:55.762Z,10.38
2022-09-26T06:16:22.328Z,10.37
2022-09-26T06:18:50.964Z,10.38
2022-09-26T06:21:18.891Z,10.40
2022-09-26T06:23:45.904Z,10.38
2022-09-26T06:26:18.256Z,10.40
2022-09-26T06:28:44.859Z,10.42
2022-09-26T06:31:13.491Z,10.43
2022-09-26T06:33:40.058Z,10.47
2022-09-26T06:36:08.809Z,10.48
2022-09-26T06:38:36.084Z,10.49
2022-09-26T06:41:03.175Z,10.50
2022-09-26T06:43:29.833Z,10.51
2022-09-26T06:45:56.221Z,10.54
2022-09-26T06:48:24.783Z,10.57
2022-09-26T06:50:53.195Z,10.59
2022-09-26T06:53:20.287Z,10.61
2022-09-26T06:55:46.750Z,10.63
2022-09-26T06:58:13.481Z,10.66
2022-09-26T07:00:40.545Z,10.67
2022-09-26T07:03:08.248Z,10.71
2022-09-26T07:05:35.098Z,10.75
2022-09-26T07:08:02.796Z,10.78
2022-09-26T07:10:34.669Z,10.80
2022-09-26T07:13:04.063Z,10.83
2022-09-26T07:15:33.024Z,10.85
2022-09-26T07:18:04.203Z,10.91
2022-09-26T07:20:33.662Z,10.96
2022-09-26T07:23:02.436Z,10.99
2022-09-26T07:25:31.224Z,11.02
2022-09-26T07:27:58.105Z,11.07
2022-09-26T07:30:24.908Z,11.08
2022-09-26T07:32:51.352Z,11.08
2022-09-26T07:35:17.816Z,11.07
2022-09-26T07:37:44.976Z,11.08
2022-09-26T07:40:12.102Z,11.09
2022-09-26T07:42:38.826Z,11.09
2022-09-26T07:45:28.906Z,11.08
2022-09-26T07:48:11.654Z,11.08
2022-09-26T07:50:38.106Z,11.08
2022-09-26T07:53:04.604Z,11.08
2022-09-26T07:55:31.081Z,11.09
2022-09-26T07:57:59.209Z,11.10
2022-09-26T08:00:26.413Z,11.10
2022-09-26T08:02:53.004Z,11.13
2022-09-26T08:05:24.555Z,11.15
2022-09-26T08:07:51.130Z,11.19
2022-09-26T08:10:22.114Z,11.22
2022-09-26T08:12:49.636Z,11.25
2022-09-26T08:15:16.714Z,11.27
2022-09-26T08:17:46.212Z,11.28
2022-09-26T08:20:12.965Z,11.32
2022-09-26T08:22:39.415Z,11.36
2022-09-26T08:25:07.226Z,11.39
2022-09-26T08:27:34.652Z,11.43
2022-09-26T08:30:04.814Z,11.47
2022-09-26T08:32:32.207Z,11.50
2022-09-26T08:34:58.772Z,11.54
2022-09-26T08:37:28.814Z,11.58
2022-09-26T08:39:55.247Z,11.62
2022-09-26T08:42:40.492Z,11.64
2022-09-26T08:45:57.009Z,11.62
2022-09-26T08:48:43.011Z,11.54
2022-09-26T08:51:16.766Z,11.47
2022-09-26T08:53:55.700Z,11.45
2022-09-26T08:56:34.141Z,11.46
2022-09-26T08:59:03.305Z,11.45
2022-09-26T09:01:35.150Z,11.50
2022-09-26T09:04:06.857Z,11.56
2022-09-26T09:06:34.927Z,11.56
2022-09-26T09:09:01.497Z,11.55
2022-09-26T09:11:40.113Z,11.55
2022-09-26T09:14:34.666Z,11.58
2022-09-26T09:17:16.920Z,11.58
2022-09-26T09:20:17.584Z,11.55
2022-09-26T09:23:18.122Z,11.51
2022-09-26T09:29:01.932Z,11.52
2022-09-26T09:31:34.464Z,11.53
2022-09-26T09:34:05.311Z,11.49
2022-09-26T09:36:41.969Z,11.46
2022-09-26T09:39:12.327Z,11.46
2022-09-26T09:41:50.227Z,11.52
2022-09-26T09:44:41.010Z,11.57
2022-09-26T09:47:16.321Z,11.64
2022-09-26T09:49:44.854Z,11.65
2022-09-26T09:52:20.164Z,11.65
2022-09-26T09:55:02.447Z,11.66
2022-09-26T09:57:55.409Z,11.69
2022-09-26T10:00:24.094Z,11.75
2022-09-26T10:03:19.109Z,11.78
2022-09-26T10:05:53.455Z,11.82
2022-09-26T10:08:25.448Z,11.83
2022-09-26T10:11:12.916Z,11.85
2022-09-26T10:13:42.963Z,11.85
2022-09-26T10:16:15.311Z,11.88
2022-09-26T10:19:04.172Z,11.97
2022-09-26T10:21:34.215Z,12.02
2022-09-26T10:24:04.751Z,12.06
2022-09-26T10:26:36.856Z,12.09
2022-09-26T10:29:38.253Z,12.10
2022-09-26T10:32:05.225Z,12.07
2022-09-26T10:34:38.069Z,12.04
2022-09-26T10:37:24.421Z,11.95
2022-09-26T10:40:15.157Z,11.91
2022-09-26T10:42:43.182Z,11.90
2022-09-26T10:45:20.271Z,11.86
2022-09-26T10:47:51.282Z,11.84
2022-09-26T10:50:23.345Z,11.81
2022-09-26T10:52:56.075Z,11.78
2022-09-26T10:55:32.278Z,11.81
2022-09-26T10:58:13.553Z,11.82
2022-09-26T11:00:43.439Z,11.81
2022-09-26T11:03:14.051Z,11.79
2022-09-26T11:05:59.301Z,11.83
2022-09-26T11:08:37.754Z,11.86
2022-09-26T11:11:11.238Z,11.86
2022-09-26T11:13:56.195Z,11.85
2022-09-26T11:16:22.812Z,11.85
2022-09-26T11:19:21.916Z,11.85
2022-09-26T11:21:58.523Z,11.84
2022-09-26T11:24:42.591Z,11.86
2022-09-26T11:27:21.385Z,11.91
2022-09-26T11:30:03.292Z,11.94
2022-09-26T11:32:33.407Z,11.93
2022-09-26T11:35:02.926Z,11.94
2022-09-26T11:38:05.468Z,11.96
2022-09-26T11:40:47.376Z,11.93
2022-09-26T11:43:25.902Z,11.95
2022-09-26T11:45:59.035Z,11.99
2022-09-26T11:48:44.401Z,12.05
2022-09-26T11:51:31.554Z,12.06
2022-09-26T11:54:28.884Z,12.02
2022-09-26T11:57:14.665Z,11.97
2022-09-26T12:00:03.914Z,11.96
2022-09-26T12:02:56.051Z,11.98
2022-09-26T12:05:30.213Z,11.97
2022-09-26T12:08:19.145Z,11.94
2022-09-26T12:11:19.275Z,11.94
2022-09-26T12:14:04.542Z,11.93
2022-09-26T12:16:48.024Z,11.93
2022-09-26T12:19:34.447Z,11.94
2022-09-26T12:22:29.046Z,11.99
2022-09-26T12:24:56.008Z,12.01
2022-09-26T12:27:29.314Z,12.03
2022-09-26T12:30:08.578Z,12.05
2022-09-26T12:32:56.695Z,11.98
2022-09-26T12:35:41.832Z,12.03
2022-09-26T12:38:32.425Z,12.04
2022-09-26T12:41:30.934Z,12.06
2022-09-26T12:44:15.929Z,12.07
2022-09-26T12:46:51.183Z,12.10
2022-09-26T12:49:48.440Z,12.12
2022-09-26T12:52:46.050Z,12.10
2022-09-26T12:55:43.836Z,12.11
2022-09-26T12:58:31.359Z,12.12
2022-09-26T13:01:14.996Z,12.13
2022-09-26T13:03:56.694Z,12.16
2022-09-26T13:06:23.221Z,12.15
2022-09-26T13:09:08.289Z,12.18
2022-09-26T13:12:04.212Z,12.16
2022-09-26T13:15:03.588Z,12.20
2022-09-26T13:17:39.374Z,12.20
2022-09-26T13:20:19.613Z,12.22
2022-09-26T13:22:49.136Z,12.16
2022-09-26T13:25:23.680Z,12.10
2022-09-26T13:28:09.289Z,12.10
2022-09-26T13:30:50.050Z,12.11
2022-09-26T13:33:39.515Z,12.09
2022-09-26T13:36:09.761Z,12.07
2022-09-26T13:38:39.188Z,12.05
2022-09-26T13:41:47.222Z,12.07
2022-09-26T13:44:32.595Z,12.12
2022-09-26T13:47:40.704Z,12.19
2022-09-26T13:50:55.599Z,12.23
2022-09-26T13:53:28.815Z,12.30
2022-09-26T13:56:34.130Z,12.39
2022-09-26T13:59:24.237Z,12.48
2022-09-26T14:02:28.351Z,12.61
2022-09-26T14:05:00.932Z,12.77
2022-09-26T14:08:01.287Z,12.88
2022-09-26T14:10:29.207Z,13.00
2022-09-26T14:13:10.747Z,13.18
2022-09-26T14:15:59.586Z,13.31
2022-09-26T14:18:58.567Z,13.31
2022-09-26T14:21:34.620Z,13.20
2022-09-26T14:24:29.498Z,13.12
2022-09-26T14:27:11.276Z,13.04
2022-09-26T14:29:42.443Z,13.00
2022-09-26T14:32:10.165Z,12.93
2022-09-26T14:34:47.830Z,12.89
2022-09-26T14:37:26.165Z,12.86
2022-09-26T14:40:12.498Z,12.81
2022-09-26T14:42:45.023Z,12.76
2022-09-26T14:45:14.426Z,12.72
2022-09-26T14:47:55.066Z,12.67
2022-09-26T14:50:27.361Z,12.64
2022-09-26T14:52:58.082Z,12.60
2022-09-26T14:55:26.827Z,12.55
2022-09-26T14:58:16.603Z,12.56
2022-09-26T15:00:48.222Z,12.55
2022-09-26T15:03:17.823Z,12.54
2022-09-26T15:05:46.132Z,12.51
2022-09-26T15:08:27.789Z,12.47
2022-09-26T15:10:57.004Z,12.45
2022-09-26T15:13:36.161Z,12.42
2022-09-26T15:16:24.256Z,12.37
2022-09-26T15:18:55.990Z,12.38
2022-09-26T15:21:36.548Z,12.33
2022-09-26T15:24:21.711Z,12.32
2022-09-26T15:26:49.717Z,12.32
2022-09-26T15:29:17.349Z,12.38
2022-09-26T15:31:45.098Z,12.43
2022-09-26T15:34:30.587Z,12.46
2022-09-26T15:36:59.068Z,12.46
2022-09-26T15:39:44.001Z,12.42
2022-09-26T15:42:29.119Z,12.43
2022-09-26T15:45:00.716Z,12.45
2022-09-26T15:47:39.579Z,12.48
2022-09-26T15:50:12.195Z,12.45
2022-09-26T15:52:43.519Z,12.45
2022-09-26T15:55:18.256Z,12.48
2022-09-26T15:57:48.837Z,12.45
2022-09-26T16:00:16.128Z,12.48
2022-09-26T16:02:43.570Z,12.51
2022-09-26T16:05:13.186Z,12.54
2022-09-26T16:07:41.601Z,12.56
2022-09-26T16:10:32.191Z,12.59
2022-09-26T16:13:00.535Z,12.59
2022-09-26T16:15:31.070Z,12.63
2022-09-26T16:17:58.543Z,12.68
2022-09-26T16:20:29.170Z,12.73
2022-09-26T16:23:04.434Z,12.77
2022-09-26T16:25:53.490Z,12.78
2022-09-26T16:28:39.428Z,12.80
2022-09-26T16:31:08.427Z,12.81
2022-09-26T16:33:38.686Z,12.85
2022-09-26T16:36:15.245Z,12.85
2022-09-26T16:38:41.957Z,12.86
2022-09-26T16:42:00.050Z,12.81
2022-09-26T16:44:29.015Z,12.77
2022-09-26T16:47:03.082Z,12.74
2022-09-26T16:49:42.866Z,12.70
2022-09-26T16:52:38.139Z,12.64
2022-09-26T16:55:06.119Z,12.63
2022-09-26T16:57:37.170Z,12.59
2022-09-26T17:00:40.673Z,12.49
2022-09-26T17:03:27.792Z,12.41
2022-09-26T17:05:56.217Z,12.34
2022-09-26T17:08:26.564Z,12.30
2022-09-26T17:10:59.934Z,12.25
2022-09-26T17:13:28.410Z,12.22
2022-09-26T17:15:57.172Z,12.18
2022-09-26T17:18:29.632Z,12.15
2022-09-26T17:20:56.980Z,12.12
2022-09-26T17:23:39.361Z,12.10
2022-09-26T17:26:07.633Z,12.09
2022-09-26T17:28:39.285Z,12.06
2022-09-26T17:31:08.225Z,12.02
2022-09-26T17:33:40.410Z,11.99
2022-09-26T17:36:10.910Z,11.98
2022-09-26T17:38:40.328Z,11.95
2022-09-26T17:41:06.949Z,11.95
2022-09-26T17:43:34.025Z,11.93
2022-09-26T17:46:00.977Z,11.92
2022-09-26T17:48:31.380Z,11.93
2022-09-26T17:51:00.586Z,11.92
2022-09-26T17:53:36.641Z,11.88
2022-09-26T17:56:06.316Z,11.86
2022-09-26T17:58:34.242Z,11.84
2022-09-26T18:01:02.755Z,11.82
2022-09-26T18:03:33.913Z,11.79
2022-09-26T18:06:01.750Z,11.77
2022-09-26T18:08:36.195Z,11.75
2022-09-26T18:13:56.905Z,11.72
2022-09-26T18:16:24.645Z,11.70
2022-09-26T18:18:51.258Z,11.71
2022-09-26T18:21:19.069Z,11.69
2022-09-26T18:23:51.678Z,11.69
2022-09-26T18:26:28.266Z,11.70
2022-09-26T18:28:56.939Z,11.69
2022-09-26T18:31:30.778Z,11.70
2022-09-26T18:33:58.040Z,11.69
2022-09-26T18:36:26.207Z,11.70
2022-09-26T18:38:52.828Z,11.69
2022-09-26T18:41:20.833Z,11.68
2022-09-26T18:43:52.109Z,11.67
2022-09-26T18:46:19.313Z,11.65
2022-09-26T18:48:46.551Z,11.65
2022-09-26T18:51:13.653Z,11.66
2022-09-26T18:53:41.106Z,11.63
2022-09-26T18:56:28.600Z,11.61
2022-09-26T18:58:57.212Z,11.60
2022-09-26T19:01:33.080Z,11.58
2022-09-26T19:04:02.908Z,11.56
2022-09-26T19:06:37.170Z,11.56
2022-09-26T19:09:06.035Z,11.52
2022-09-26T19:11:34.518Z,11.52
2022-09-26T19:14:12.198Z,11.52
2022-09-26T19:16:38.970Z,11.49
2022-09-26T19:19:05.434Z,11.47
2022-09-26T19:24:39.498Z,11.43
2022-09-26T19:27:11.107Z,11.43
2022-09-26T19:29:44.650Z,11.39
2022-09-26T19:32:19.120Z,11.39
2022-09-26T19:34:51.219Z,11.36
2022-09-26T19:37:17.623Z,11.34
2022-09-26T19:39:44.115Z,11.32
2022-09-26T19:42:10.496Z,11.33
2022-09-26T19:44:36.874Z,11.30
2022-09-26T19:47:04.676Z,11.26
2022-09-26T19:49:32.111Z,11.23
2022-09-26T19:52:01.206Z,11.20
2022-09-26T19:54:27.674Z,11.18
2022-09-26T19:56:54.134Z,11.11
2022-09-26T19:59:24.064Z,11.09
2022-09-26T20:01:53.246Z,11.05
2022-09-26T20:04:20.042Z,11.02
2022-09-26T20:06:46.950Z,11.00
2022-09-26T20:09:16.260Z,11.00
2022-09-26T20:11:42.737Z,11.00
2022-09-26T20:14:24.730Z,10.99
2022-09-26T20:16:55.459Z,10.97
2022-09-26T20:19:28.922Z,10.91
2022-09-26T20:21:59.807Z,10.90
2022-09-26T20:24:27.712Z,10.89
2022-09-26T20:26:55.125Z,10.87
2022-09-26T20:29:21.642Z,10.87
2022-09-26T20:31:48.166Z,10.85
2022-09-26T20:34:17.195Z,10.83
2022-09-26T20:36:48.793Z,10.83
2022-09-26T20:39:25.031Z,10.81
2022-09-26T20:41:52.404Z,10.78
2022-09-26T20:44:24.621Z,10.77
2022-09-26T20:46:56.307Z,10.78
2022-09-26T20:49:33.450Z,10.76
2022-09-26T20:52:00.762Z,10.76
2022-09-26T20:54:32.601Z,10.75
2022-09-26T20:56:59.447Z,10.71
2022-09-26T20:59:26.633Z,10.72
2022-09-26T21:01:54.725Z,10.72
2022-09-26T21:04:30.018Z,10.69
2022-09-26T21:06:56.790Z,10.68
2022-09-26T21:09:23.304Z,10.65
2022-09-26T21:11:49.728Z,10.63
2022-09-26T21:14:17.210Z,10.60
2022-09-26T21:16:52.527Z,10.58
2022-09-26T21:19:22.920Z,10.58
2022-09-26T21:21:51.253Z,10.57
2022-09-26T21:24:25.463Z,10.56
2022-09-26T21:26:52.025Z,10.54
2022-09-26T21:29:18.657Z,10.52
2022-09-26T21:31:49.122Z,10.50
2022-09-26T21:34:41.885Z,10.48
2022-09-26T21:37:10.230Z,10.46
2022-09-26T21:39:38.912Z,10.48
2022-09-26T21:42:07.218Z,10.44
2022-09-26T21:44:45.293Z,10.43
2022-09-26T21:47:11.877Z,10.43
2022-09-26T21:49:38.319Z,10.41
2022-09-26T21:52:28.359Z,10.41
2022-09-26T21:54:57.394Z,10.38
2022-09-26T21:57:31.932Z,10.36
2022-09-26T21:59:58.686Z,10.34
2022-09-26T22:02:25.770Z,10.31
2022-09-26T22:04:52.789Z,10.31
2022-09-26T22:07:19.247Z,10.31
2022-09-26T22:09:45.820Z,10.29
2022-09-26T22:12:12.338Z,10.27
2022-09-26T22:14:38.745Z,10.26
2022-09-26T22:17:05.276Z,10.26
2022-09-26T22:19:35.258Z,10.25
2022-09-26T22:22:02.270Z,10.24
2022-09-26T22:24:29.062Z,10.22
2022-09-26T22:26:55.514Z,10.25
2022-09-26T22:29:21.919Z,10.21
2022-09-26T22:31:48.439Z,10.21
2022-09-26T22:34:15.127Z,10.18
2022-09-26T22:36:41.645Z,10.18
2022-09-26T22:39:08.116Z,10.18
2022-09-26T22:41:34.546Z,10.19
2022-09-26T22:44:01.253Z,10.19
2022-09-26T22:46:27.793Z,10.17
2022-09-26T22:48:54.290Z,10.15
2022-09-26T22:51:20.679Z,10.13
2022-09-26T22:53:47.089Z,10.12
2022-09-26T22:56:15.139Z,10.12
2022-09-26T22:58:44.096Z,10.11
2022-09-26T23:01:13.824Z,10.09
2022-09-26T23:03:40.974Z,10.07
2022-09-26T23:06:08.491Z,10.06
2022-09-26T23:08:35.789Z,10.05
2022-09-26T23:11:03.612Z,10.02
2022-09-26T23:13:31.985Z,9.99
2022-09-26T23:16:17.398Z,9.97
2022-09-26T23:18:44.551Z,9.96
2022-09-26T23:21:16.656Z,9.94
2022-09-26T23:23:45.510Z,9.89
2022-09-26T23:26:16.503Z,9.88
2022-09-26T23:28:42.936Z,9.87
2022-09-26T23:31:11.326Z,9.84
2022-09-26T23:33:38.376Z,9.82
2022-09-26T23:36:06.392Z,9.79
2022-09-26T23:38:33.361Z,9.79
2022-09-26T23:40:59.905Z,9.80
2022-09-26T23:43:26.421Z,9.78
2022-09-26T23:45:52.998Z,9.75
2022-09-26T23:48:19.473Z,9.72
2022-09-26T23:50:47.325Z,9.68
2022-09-26T23:53:15.145Z,9.66
2022-09-26T23:55:41.677Z,9.63
2022-09-26T23:58:08.977Z,9.61
